Time;durP1;ratioP1;P1;durP2;ratioP2;P2;SDS_P1;SDS_P2;PMS_P1;PMS_P2;Temp;Humidity;BMP_temperature;BMP_pressure;BME280_temperature;BME280_humidity;BME280_pressure;Samples;Min_cycle;Max_cycle;Signal;HPM_P1;HPM_P2
2023/09/28 00:03:01;;;;;;;1.20;1.17;;;;;13.10;96194.00;;;;4977463;28;20740;-54
2023/09/28 00:05:28;;;;;;;1.17;1.00;;;;;13.10;96190.00;;;;4995010;28;20241;-54
2023/09/28 00:07:57;;;;;;;1.20;1.10;;;;;13.10;96194.00;;;;4995397;28;20193;-54
2023/09/28 00:10:24;;;;;;;0.70;0.70;;;;;12.90;96197.00;;;;4995154;28;20627;-57
2023/09/28 00:12:53;;;;;;;0.97;0.97;;;;;13.00;96200.00;;;;4994954;28;20700;-57
2023/09/28 00:15:22;;;;;;;1.60;1.50;;;;;12.90;96199.00;;;;4994951;28;20235;-57
2023/09/28 00:17:49;;;;;;;1.10;1.10;;;;;13.00;96205.00;;;;4994681;28;20217;-57
2023/09/28 00:20:20;;;;;;;1.23;1.23;;;;;12.90;96211.00;;;;4995321;28;20209;-56
2023/09/28 00:22:48;;;;;;;1.00;1.00;;;;;12.90;96208.00;;;;4994765;28;20210;-57
2023/09/28 00:25:17;;;;;;;0.97;0.97;;;;;12.90;96209.00;;;;4994798;28;20196;-57
2023/09/28 00:27:45;;;;;;;0.70;0.70;;;;;13.00;96216.00;;;;4995405;28;20568;-59
2023/09/28 00:30:18;;;;;;;1.53;1.43;;;;;13.00;96212.00;;;;4977045;28;20193;-58
2023/09/28 00:32:45;;;;;;;1.20;1.20;;;;;13.00;96209.00;;;;4994901;28;20246;-57
2023/09/28 00:35:13;;;;;;;1.20;1.20;;;;;13.00;96202.00;;;;4994679;28;20202;-56
2023/09/28 00:37:40;;;;;;;2.13;1.90;;;;;13.00;96201.00;;;;4994541;28;20229;-56
2023/09/28 00:40:16;;;;;;;1.10;1.10;;;;;12.90;96200.00;;;;4994528;28;20239;-56
2023/09/28 00:42:44;;;;;;;1.80;1.13;;;;;12.90;96208.00;;;;4994528;28;20209;-56
2023/09/28 00:45:12;;;;;;;1.23;1.20;;;;;12.80;96194.00;;;;4994466;28;20252;-56
2023/09/28 00:47:40;;;;;;;2.03;1.87;;;;;12.80;96196.00;;;;4994291;28;20204;-56
2023/09/28 00:50:10;;;;;;;1.20;1.20;;;;;12.80;96197.00;;;;4994440;28;20194;-57
2023/09/28 00:52:40;;;;;;;1.20;1.20;;;;;12.80;96197.00;;;;4994524;28;20222;-56
2023/09/28 00:55:09;;;;;;;0.87;0.87;;;;;12.80;96188.00;;;;4994305;28;20190;-56
2023/09/28 00:57:38;;;;;;;1.87;1.77;;;;;12.80;96188.00;;;;4994157;28;20244;-55
2023/09/28 01:00:18;;;;;;;1.60;1.50;;;;;12.90;96193.00;;;;4994386;28;20658;-55
2023/09/28 01:02:44;;;;;;;1.27;1.17;;;;;12.80;96194.00;;;;4994583;28;20758;-56
2023/09/28 01:05:13;;;;;;;1.53;1.43;;;;;12.80;96196.00;;;;4994143;28;20202;-56
2023/09/28 01:07:40;;;;;;;0.90;0.90;;;;;12.80;96191.00;;;;4994011;28;20194;-56
2023/09/28 01:10:12;;;;;;;3.10;1.67;;;;;12.70;96191.00;;;;4993975;28;20194;-56
2023/09/28 01:12:39;;;;;;;1.70;1.60;;;;;12.50;96189.00;;;;4993969;28;20394;-55
2023/09/28 01:15:11;;;;;;;1.93;1.83;;;;;12.50;96187.00;;;;4994207;28;20253;-56
2023/09/28 01:17:39;;;;;;;1.57;1.47;;;;;12.50;96185.00;;;;4993845;28;20403;-55
2023/09/28 01:20:17;;;;;;;3.13;1.63;;;;;12.50;96180.00;;;;4993866;28;20692;-56
2023/09/28 01:22:45;;;;;;;1.10;1.10;;;;;12.60;96180.00;;;;4993777;28;20233;-57
2023/09/28 01:25:15;;;;;;;0.77;0.77;;;;;12.60;96188.00;;;;4993785;28;20202;-57
2023/09/28 01:27:44;;;;;;;1.00;1.00;;;;;12.50;96193.00;;;;4993876;28;20281;-57
2023/09/28 01:30:12;;;;;;;0.90;0.90;;;;;12.40;96195.00;;;;4994243;28;20216;-57
2023/09/28 01:32:39;;;;;;;1.00;1.00;;;;;12.50;96194.00;;;;4993670;28;20268;-56
2023/09/28 01:35:07;;;;;;;1.27;1.27;;;;;12.50;96192.00;;;;4993645;28;20369;-56
2023/09/28 01:37:42;;;;;;;1.63;1.27;;;;;12.60;96188.00;;;;4993540;28;20190;-56
2023/09/28 01:40:13;;;;;;;0.70;0.70;;;;;12.60;96189.00;;;;4993640;28;20607;-56
2023/09/28 01:42:39;;;;;;;1.00;1.00;;;;;12.30;96182.00;;;;4992857;28;20217;-56
2023/09/28 01:45:08;;;;;;;2.40;1.73;;;;;12.30;96177.00;;;;4992376;28;20194;-55
2023/09/28 01:47:34;;;;;;;2.87;1.57;;;;;12.30;96175.00;;;;4993518;28;20205;-55
2023/09/28 01:50:03;;;;;;;1.40;1.30;;;;;12.30;96173.00;;;;4993566;28;20197;-55
2023/09/28 01:52:29;;;;;;;1.33;1.27;;;;;12.30;96176.00;;;;4993545;28;20210;-54
2023/09/28 01:54:57;;;;;;;0.97;0.97;;;;;12.30;96174.00;;;;4993975;28;20197;-55
2023/09/28 01:57:25;;;;;;;1.50;1.40;;;;;12.40;96171.00;;;;4993634;28;20198;-55
2023/09/28 01:59:52;;;;;;;1.20;1.20;;;;;12.40;96172.00;;;;4993678;28;20258;-55
2023/09/28 02:02:21;;;;;;;1.23;1.23;;;;;12.50;96177.00;;;;4993749;28;20218;-55
2023/09/28 02:04:48;;;;;;;1.40;1.30;;;;;12.50;96174.00;;;;4993429;28;20289;-55
2023/09/28 02:07:15;;;;;;;0.70;0.70;;;;;12.50;96192.00;;;;4994112;28;20197;-55
2023/09/28 02:09:42;;;;;;;1.17;1.10;;;;;12.50;96192.00;;;;4993758;28;20193;-57
2023/09/28 02:12:08;;;;;;;1.10;1.10;;;;;12.30;96186.00;;;;4992159;28;20713;-55
2023/09/28 02:14:37;;;;;;;0.80;0.80;;;;;12.30;96196.00;;;;4993840;28;20301;-55
2023/09/28 02:17:04;;;;;;;1.17;1.17;;;;;12.30;96202.00;;;;4994341;28;20201;-55
2023/09/28 02:19:31;;;;;;;1.20;1.10;;;;;12.30;96190.00;;;;4993818;28;20293;-56
2023/09/28 02:21:58;;;;;;;0.70;0.70;;;;;12.40;96187.00;;;;4993774;28;20218;-55
2023/09/28 02:24:26;;;;;;;5.43;1.97;;;;;12.40;96194.00;;;;4993468;28;20218;-56
2023/09/28 02:26:53;;;;;;;1.57;1.47;;;;;12.30;96199.00;;;;4993455;28;20644;-56
2023/09/28 02:29:21;;;;;;;2.03;1.37;;;;;12.30;96195.00;;;;4993212;28;20198;-56
2023/09/28 02:31:48;;;;;;;0.80;0.80;;;;;12.30;96191.00;;;;4993130;28;20294;-56
2023/09/28 02:34:16;;;;;;;0.93;0.93;;;;;12.40;96203.00;;;;4991814;28;20723;-56
2023/09/28 02:36:43;;;;;;;0.97;0.97;;;;;12.30;96196.00;;;;4993088;28;20194;-56
2023/09/28 02:39:10;;;;;;;1.20;1.20;;;;;12.30;96187.00;;;;4993023;28;20222;-56
2023/09/28 02:41:37;;;;;;;1.00;1.00;;;;;12.30;96186.00;;;;4993358;28;20249;-55
2023/09/28 02:44:04;;;;;;;1.67;1.57;;;;;12.30;96188.00;;;;4993241;28;20649;-56
2023/09/28 02:46:31;;;;;;;1.20;1.20;;;;;12.30;96190.00;;;;4993550;28;20198;-55
2023/09/28 02:49:02;;;;;;;1.07;1.07;;;;;12.20;96186.00;;;;4993248;28;20217;-55
2023/09/28 02:51:28;;;;;;;1.03;1.03;;;;;12.10;96193.00;;;;4993203;28;20326;-55
2023/09/28 02:53:56;;;;;;;1.00;1.00;;;;;12.00;96190.00;;;;4993872;28;20662;-55
2023/09/28 02:56:23;;;;;;;1.63;1.53;;;;;12.00;96199.00;;;;4996430;28;20202;-55
2023/09/28 02:58:51;;;;;;;1.03;1.03;;;;;12.10;96199.00;;;;4996324;28;20713;-56
2023/09/28 03:01:21;;;;;;;2.00;1.43;;;;;12.20;96190.00;;;;4996203;28;20720;-56
2023/09/28 03:03:49;;;;;;;4.60;1.80;;;;;12.10;96200.00;;;;4996342;28;20677;-56
2023/09/28 03:06:20;;;;;;;6.77;0.83;;;;;12.00;96204.00;;;;4996245;28;20278;-56
2023/09/28 03:08:47;;;;;;;0.97;0.97;;;;;12.00;96204.00;;;;4996448;28;20194;-56
2023/09/28 03:11:14;;;;;;;1.17;1.17;;;;;12.20;96200.00;;;;4996391;28;20316;-56
2023/09/28 03:13:41;;;;;;;4.03;1.97;;;;;12.20;96192.00;;;;4996037;28;20194;-56
2023/09/28 03:16:09;;;;;;;1.03;1.03;;;;;12.00;96198.00;;;;4996205;28;20658;-56
2023/09/28 03:18:36;;;;;;;0.70;0.70;;;;;12.00;96200.00;;;;4995836;28;20218;-56
2023/09/28 03:21:04;;;;;;;1.13;1.13;;;;;12.10;96192.00;;;;4995866;28;20213;-56
2023/09/28 03:23:33;;;;;;;1.07;1.00;;;;;12.20;96194.00;;;;4996381;28;20557;-56
2023/09/28 03:26:00;;;;;;;1.73;1.63;;;;;12.20;96188.00;;;;4995804;28;20190;-56
2023/09/28 03:28:30;;;;;;;0.90;0.90;;;;;12.10;96189.00;;;;4995845;28;20194;-56
2023/09/28 03:30:57;;;;;;;0.83;0.83;;;;;11.90;96188.00;;;;4996001;28;20179;-56
2023/09/28 03:33:25;;;;;;;1.00;1.00;;;;;11.80;96203.00;;;;4996371;28;20200;-55
2023/09/28 03:35:52;;;;;;;1.07;1.07;;;;;11.80;96206.00;;;;4995795;28;20618;-56
2023/09/28 03:38:19;;;;;;;1.43;1.33;;;;;12.00;96210.00;;;;4995593;28;20221;-56
2023/09/28 03:40:48;;;;;;;1.10;1.10;;;;;12.20;96214.00;;;;4995835;28;20198;-56
2023/09/28 03:43:16;;;;;;;1.27;1.20;;;;;12.10;96227.00;;;;4995636;28;20201;-56
2023/09/28 03:45:44;;;;;;;1.10;1.10;;;;;12.00;96219.00;;;;4996054;28;20248;-55
2023/09/28 03:48:11;;;;;;;6.50;1.37;;;;;12.00;96232.00;;;;4995700;28;20224;-55
2023/09/28 03:50:39;;;;;;;0.97;0.97;;;;;12.10;96236.00;;;;4995412;28;20201;-56
2023/09/28 03:53:06;;;;;;;0.90;0.90;;;;;12.10;96237.00;;;;4995271;28;20194;-56
2023/09/28 03:55:34;;;;;;;1.30;1.23;;;;;12.10;96221.00;;;;4977793;28;20202;-56
2023/09/28 03:58:03;;;;;;;2.93;1.53;;;;;12.20;96229.00;;;;4995556;28;20182;-56
2023/09/28 04:00:31;;;;;;;1.23;1.23;;;;;12.30;96217.00;;;;4995291;28;20197;-56
2023/09/28 04:02:59;;;;;;;1.20;1.20;;;;;12.40;96215.00;;;;4995062;28;20293;-56
2023/09/28 04:05:27;;;;;;;0.83;0.83;;;;;12.50;96231.00;;;;4994483;28;20532;-56
2023/09/28 04:07:54;;;;;;;0.93;0.93;;;;;12.30;96236.00;;;;4995153;28;20190;-56
2023/09/28 04:10:22;;;;;;;1.63;1.53;;;;;12.20;96235.00;;;;4995403;28;20566;-55
2023/09/28 04:12:49;;;;;;;0.80;0.80;;;;;12.10;96236.00;;;;4995391;28;20218;-55
2023/09/28 04:15:18;;;;;;;0.97;0.97;;;;;12.10;96233.00;;;;4995171;28;20194;-56
2023/09/28 04:17:45;;;;;;;1.30;1.20;;;;;12.10;96238.00;;;;4994982;28;20195;-56
2023/09/28 04:20:13;;;;;;;0.90;0.90;;;;;11.90;96235.00;;;;4994811;28;20689;-56
2023/09/28 04:22:40;;;;;;;0.90;0.90;;;;;11.90;96232.00;;;;4994804;28;20213;-55
2023/09/28 04:25:09;;;;;;;1.00;1.00;;;;;12.10;96233.00;;;;4994844;28;20556;-55
2023/09/28 04:27:37;;;;;;;1.43;1.33;;;;;12.10;96228.00;;;;4977155;28;20202;-55
2023/09/28 04:30:05;;;;;;;1.67;1.57;;;;;12.20;96223.00;;;;4994535;28;20212;-55
2023/09/28 04:32:35;;;;;;;1.90;1.57;;;;;12.30;96219.00;;;;4994484;28;20210;-55
2023/09/28 04:35:06;;;;;;;1.77;1.67;;;;;12.40;96230.00;;;;4994431;28;20249;-55
2023/09/28 04:37:33;;;;;;;6.50;1.43;;;;;12.50;96234.00;;;;4994490;28;20201;-55
2023/09/28 04:40:00;;;;;;;0.90;0.90;;;;;12.60;96231.00;;;;4994732;28;20681;-56
2023/09/28 04:42:28;;;;;;;1.23;1.13;;;;;12.70;96234.00;;;;4994791;28;20225;-56
2023/09/28 04:44:55;;;;;;;1.37;1.27;;;;;12.60;96237.00;;;;4994671;28;20285;-56
2023/09/28 04:47:23;;;;;;;1.33;1.03;;;;;12.40;96240.00;;;;4994357;28;20205;-55
2023/09/28 04:49:51;;;;;;;0.83;0.83;;;;;12.50;96243.00;;;;4994764;28;20190;-56
2023/09/28 04:52:19;;;;;;;1.80;1.43;;;;;12.40;96247.00;;;;4994032;28;20214;-56
2023/09/28 04:54:46;;;;;;;0.87;0.87;;;;;12.30;96248.00;;;;4994397;28;20269;-56
2023/09/28 04:57:14;;;;;;;1.67;1.57;;;;;12.30;96235.00;;;;4994225;28;20662;-56
2023/09/28 04:59:41;;;;;;;1.17;1.07;;;;;12.30;96238.00;;;;4994053;28;20693;-56
2023/09/28 05:02:09;;;;;;;1.70;1.60;;;;;12.40;96240.00;;;;4993903;28;20213;-56
2023/09/28 05:04:36;;;;;;;1.47;1.23;;;;;12.30;96246.00;;;;4994113;28;20223;-58
2023/09/28 05:07:05;;;;;;;1.03;1.03;;;;;12.30;96251.00;;;;4994225;28;20264;-56
2023/09/28 05:09:33;;;;;;;1.00;1.00;;;;;12.40;96250.00;;;;4994281;28;20187;-56
2023/09/28 05:12:01;;;;;;;1.60;1.40;;;;;12.40;96249.00;;;;4993871;28;20224;-56
2023/09/28 05:14:29;;;;;;;0.90;0.90;;;;;12.40;96256.00;;;;4993659;28;20198;-59
2023/09/28 05:16:56;;;;;;;1.37;1.30;;;;;12.40;96261.00;;;;4993278;28;20654;-58
2023/09/28 05:19:25;;;;;;;1.10;1.00;;;;;12.30;96264.00;;;;4975846;28;20230;-58
2023/09/28 05:21:52;;;;;;;1.73;1.57;;;;;12.20;96267.00;;;;4993544;28;20218;-56
2023/09/28 05:24:21;;;;;;;3.03;1.87;;;;;12.20;96267.00;;;;4993947;28;20201;-55
2023/09/28 05:26:50;;;;;;;1.77;1.67;;;;;12.10;96273.00;;;;4993873;28;20604;-55
2023/09/28 05:29:17;;;;;;;1.93;1.77;;;;;12.10;96272.00;;;;4993772;28;20586;-55
2023/09/28 05:31:46;;;;;;;1.07;1.07;;;;;12.10;96273.00;;;;4975847;28;20268;-57
2023/09/28 05:34:14;;;;;;;1.10;1.10;;;;;12.10;96277.00;;;;4994043;28;20206;-55
2023/09/28 05:36:41;;;;;;;0.80;0.80;;;;;12.10;96290.00;;;;4994071;28;20198;-55
2023/09/28 05:39:09;;;;;;;1.53;1.43;;;;;12.20;96291.00;;;;4994124;28;20210;-55
2023/09/28 05:41:38;;;;;;;1.07;1.07;;;;;12.10;96289.00;;;;4993859;28;20233;-55
2023/09/28 05:44:07;;;;;;;1.63;1.53;;;;;12.20;96300.00;;;;4994170;28;20209;-55
2023/09/28 05:46:36;;;;;;;1.17;1.17;;;;;12.30;96297.00;;;;4993814;28;20348;-55
2023/09/28 05:49:03;;;;;;;1.50;1.40;;;;;12.30;96287.00;;;;4993700;28;20569;-56
2023/09/28 05:51:31;;;;;;;1.73;1.63;;;;;12.30;96298.00;;;;4993683;28;20685;-55
2023/09/28 05:53:58;;;;;;;1.00;1.00;;;;;12.30;96297.00;;;;4975921;28;20202;-55
2023/09/28 05:56:25;;;;;;;1.30;1.30;;;;;12.20;96286.00;;;;4993391;28;20205;-56
2023/09/28 05:58:55;;;;;;;1.07;1.07;;;;;12.20;96291.00;;;;4993311;28;20198;-56
2023/09/28 06:01:29;;;;;;;0.87;0.87;;;;;12.20;96303.00;;;;4993310;28;20214;-55
2023/09/28 06:03:56;;;;;;;1.50;1.40;;;;;12.20;96297.00;;;;4993809;28;20191;-55
2023/09/28 06:06:24;;;;;;;1.10;1.10;;;;;12.20;96292.00;;;;4993639;28;20220;-56
2023/09/28 06:08:52;;;;;;;0.90;0.90;;;;;12.30;96301.00;;;;4993500;28;20205;-58
2023/09/28 06:11:20;;;;;;;0.70;0.70;;;;;12.30;96305.00;;;;4993420;28;20214;-56
2023/09/28 06:13:47;;;;;;;0.97;0.97;;;;;12.40;96302.00;;;;4993221;28;20190;-56
2023/09/28 06:16:16;;;;;;;1.30;1.20;;;;;12.40;96301.00;;;;4993314;28;20201;-56
2023/09/28 06:18:46;;;;;;;1.53;1.43;;;;;12.40;96289.00;;;;4993149;28;20629;-56
2023/09/28 06:21:13;;;;;;;1.70;1.60;;;;;12.50;96305.00;;;;4993166;28;20276;-55
2023/09/28 06:23:41;;;;;;;1.33;1.33;;;;;12.50;96303.00;;;;4975749;28;20213;-57
2023/09/28 06:26:08;;;;;;;1.00;1.00;;;;;12.50;96301.00;;;;4993235;28;20194;-56
2023/09/28 06:28:36;;;;;;;0.83;0.83;;;;;12.50;96303.00;;;;4993995;28;20195;-56
2023/09/28 06:31:03;;;;;;;1.33;0.80;;;;;12.50;96308.00;;;;4997273;28;20218;-56
2023/09/28 06:33:32;;;;;;;1.27;1.23;;;;;12.50;96313.00;;;;4997097;28;20276;-56
2023/09/28 06:36:00;;;;;;;1.40;1.30;;;;;12.60;96303.00;;;;4997411;28;20202;-56
2023/09/28 06:38:27;;;;;;;1.50;1.40;;;;;12.70;96302.00;;;;4979401;28;20288;-56
2023/09/28 06:40:55;;;;;;;1.03;1.03;;;;;12.90;96311.00;;;;4996648;28;20218;-56
2023/09/28 06:43:22;;;;;;;1.83;1.73;;;;;12.90;96311.00;;;;4997180;28;20201;-56
2023/09/28 06:45:50;;;;;;;1.70;1.63;;;;;12.80;96304.00;;;;4997355;28;20190;-56
2023/09/28 06:48:18;;;;;;;1.47;1.37;;;;;13.00;96307.00;;;;4997395;28;20226;-56
2023/09/28 06:50:47;;;;;;;0.97;0.97;;;;;13.00;96314.00;;;;4979387;28;20678;-56
2023/09/28 06:53:15;;;;;;;1.07;1.07;;;;;13.10;96318.00;;;;4996824;28;20198;-56
2023/09/28 06:55:44;;;;;;;2.73;2.47;;;;;13.10;96316.00;;;;4996300;28;20233;-57
2023/09/28 06:58:14;;;;;;;21.73;14.30;;;;;13.20;96312.00;;;;4996310;28;20205;-56
2023/09/28 07:00:42;;;;;;;6.10;4.40;;;;;13.30;96315.00;;;;4996134;28;20308;-56
2023/09/28 07:03:09;;;;;;;1.73;1.63;;;;;13.40;96322.00;;;;4978596;28;20204;-56
2023/09/28 07:05:37;;;;;;;1.30;1.20;;;;;13.40;96320.00;;;;4996239;28;20195;-56
2023/09/28 07:08:06;;;;;;;1.13;1.03;;;;;13.40;96324.00;;;;4996088;28;20613;-56
2023/09/28 07:10:34;;;;;;;1.63;1.53;;;;;13.40;96321.00;;;;4996036;28;20198;-56
2023/09/28 07:13:03;;;;;;;0.80;0.80;;;;;13.40;96315.00;;;;4995806;28;20220;-56
2023/09/28 07:15:31;;;;;;;0.70;0.70;;;;;13.60;96323.00;;;;4995689;28;20273;-56
2023/09/28 07:17:59;;;;;;;1.90;1.60;;;;;13.60;96330.00;;;;4995691;28;20198;-56
2023/09/28 07:20:27;;;;;;;3.23;1.60;;;14.30;77.60;13.70;96337.00;;;;4996207;28;20272;-56
2023/09/28 07:22:55;;;;;;;1.57;1.47;;;14.20;77.70;13.80;96333.00;;;;4996679;28;20218;-56
2023/09/28 07:25:25;;;;;;;2.33;2.17;;;;;13.90;96335.00;;;;4995629;28;20245;-56
2023/09/28 07:27:53;;;;;;;1.63;1.53;;;;;14.10;96331.00;;;;4995785;28;20217;-56
2023/09/28 07:30:22;;;;;;;2.00;1.90;;;;;14.20;96324.00;;;;4995506;28;20190;-56
2023/09/28 07:32:51;;;;;;;3.50;2.00;;;;;14.30;96341.00;;;;4995734;28;20218;-56
2023/09/28 07:35:19;;;;;;;1.17;1.17;;;;;14.50;96339.00;;;;4995388;28;20274;-56
2023/09/28 07:37:47;;;;;;;0.90;0.90;;;;;14.60;96343.00;;;;4995642;28;20548;-56
2023/09/28 07:40:17;;;;;;;1.07;1.07;;;;;14.70;96334.00;;;;4994475;28;20214;-56
2023/09/28 07:42:46;;;;;;;1.67;1.57;;;;;14.80;96342.00;;;;4995226;28;20289;-56
2023/09/28 07:45:14;;;;;;;3.90;1.53;;;;;14.90;96331.00;;;;4995774;28;20272;-56
2023/09/28 07:47:42;;;;;;;1.13;1.13;;;;;15.00;96344.00;;;;4995535;28;20205;-56
2023/09/28 07:50:11;;;;;;;1.00;1.00;;;;;15.10;96340.00;;;;4995671;28;20190;-57
2023/09/28 07:52:39;;;;;;;2.80;1.10;;;;;15.20;96333.00;;;;4995492;28;20268;-57
2023/09/28 07:55:07;;;;;;;3.20;1.13;;;;;15.40;96333.00;;;;4995814;28;20198;-56
2023/09/28 07:57:36;;;;;;;1.60;1.50;;;;;15.50;96347.00;;;;4995539;28;20195;-56
2023/09/28 08:00:06;;;;;;;0.90;0.90;;;;;15.70;96340.00;;;;4995289;28;20214;-56
2023/09/28 08:02:34;;;;;;;0.80;0.80;;;;;15.80;96336.00;;;;4995234;28;20213;-56
2023/09/28 08:05:02;;;;;;;1.20;1.10;;;;;16.00;96338.00;;;;4995068;28;20274;-56
2023/09/28 08:07:31;;;;;;;1.40;1.30;;;;;16.20;96333.00;;;;4995138;28;20190;-56
2023/09/28 08:10:00;;;;;;;2.13;1.93;;;;;16.30;96334.00;;;;4995197;28;20245;-56
2023/09/28 08:12:28;;;;;;;0.70;0.70;;;;;16.30;96327.00;;;;4994870;28;20225;-56
2023/09/28 08:14:55;;;;;;;1.10;1.10;;;;;16.40;96326.00;;;;4994726;28;20249;-56
2023/09/28 08:17:24;;;;;;;0.97;0.97;;;;;16.50;96323.00;;;;4994685;28;20194;-56
2023/09/28 08:19:52;;;;;;;0.57;0.57;;;;;16.60;96329.00;;;;4994695;28;20222;-56
2023/09/28 08:22:19;;;;;;;0.90;0.90;;;;;16.80;96324.00;;;;4994906;28;20218;-56
2023/09/28 08:24:47;;;;;;;0.83;0.83;;;;;16.90;96327.00;;;;4995421;28;20205;-57
2023/09/28 08:27:14;;;;;;;1.73;1.63;;;;;17.20;96321.00;;;;4994701;28;20201;-56
2023/09/28 08:29:42;;;;;;;0.63;0.63;;;;;17.20;96328.00;;;;4994838;28;20278;-56
2023/09/28 08:32:10;;;;;;;1.13;1.03;;;;;17.50;96326.00;;;;4977131;28;20697;-56
2023/09/28 08:34:38;;;;;;;1.50;1.40;;;;;17.70;96333.00;;;;4995249;28;20205;-56
2023/09/28 08:37:06;;;;;;;0.87;0.87;;;;;17.70;96341.00;;;;4995631;28;20336;-56
2023/09/28 08:39:35;;;;;;;1.00;1.00;;;;;17.80;96342.00;;;;4994509;28;20194;-56
2023/09/28 08:42:04;;;;;;;1.00;1.00;;;;;18.00;96341.00;;;;4994243;28;20213;-55
2023/09/28 08:44:32;;;;;;;0.93;0.93;;;18.50;55.70;18.00;96346.00;;;;4994733;28;20198;-56
2023/09/28 08:47:01;;;;;;;1.10;0.97;;;18.40;54.70;18.20;96338.00;;;;4994329;28;20201;-55
2023/09/28 08:49:30;;;;;;;1.20;1.10;;;18.50;67.20;18.40;96346.00;;;;4994254;28;20201;-56
2023/09/28 08:51:59;;;;;;;0.80;0.80;;;;;18.40;96352.00;;;;4993819;28;20218;-56
2023/09/28 08:54:28;;;;;;;1.30;1.30;;;;;18.50;96347.00;;;;4994129;28;20200;-56
2023/09/28 08:56:57;;;;;;;1.70;1.20;;;;;18.60;96347.00;;;;4994095;28;20230;-56
2023/09/28 08:59:28;;;;;;;0.93;0.93;;;;;18.80;96344.00;;;;4994086;28;20202;-56
2023/09/28 09:01:57;;;;;;;0.80;0.80;;;;;19.00;96343.00;;;;4993995;28;20225;-56
2023/09/28 09:04:25;;;;;;;1.67;1.10;;;;;19.10;96342.00;;;;4994024;28;20281;-56
2023/09/28 09:06:53;;;;;;;0.70;0.70;;;;;19.30;96346.00;;;;4994245;28;20194;-56
2023/09/28 09:09:24;;;;;;;13.13;0.97;;;;;19.40;96340.00;;;;4994697;28;20691;-57
2023/09/28 09:11:52;;;;;;;4.67;1.67;;;;;19.60;96339.00;;;;4994089;28;20228;-57
2023/09/28 09:14:21;;;;;;;0.70;0.70;;;;;19.70;96343.00;;;;4994205;28;20226;-56
2023/09/28 09:16:50;;;;;;;5.03;1.07;;;;;19.80;96345.00;;;;4993924;28;20201;-56
2023/09/28 09:19:17;;;;;;;0.83;0.83;;;;;20.10;96346.00;;;;4993789;28;20217;-56
2023/09/28 09:21:45;;;;;;;1.20;1.20;;;;;20.30;96357.00;;;;4994181;28;20236;-56
2023/09/28 09:24:14;;;;;;;0.70;0.70;;;;;20.40;96353.00;;;;4993791;28;20277;-57
2023/09/28 09:26:44;;;;;;;1.00;1.00;;;;;20.50;96354.00;;;;4993904;28;20197;-56
2023/09/28 09:29:13;;;;;;;1.52;1.42;;;21.10;51.20;20.80;96357.00;;;;4993722;28;20258;-56
2023/09/28 09:31:42;;;;;;;1.17;1.08;;;21.10;50.90;20.90;96354.00;;;;4993539;28;20712;-56
2023/09/28 09:34:13;;;;;;;1.48;1.38;;;21.20;47.50;21.20;96355.00;;;;4993869;28;20198;-56
2023/09/28 09:36:42;;;;;;;0.70;0.70;;;21.50;47.80;21.10;96357.00;;;;4976188;28;20186;-56
2023/09/28 09:39:21;;;;;;;1.75;1.05;;;21.40;48.00;21.10;96357.00;;;;4993524;28;20246;-56
2023/09/28 09:41:51;;;;;;;0.75;0.75;;;21.50;47.60;21.20;96349.00;;;;4993683;28;20225;-56
2023/09/28 09:44:20;;;;;;;1.25;1.15;;;21.60;49.10;21.50;96342.00;;;;4993560;28;20248;-55
2023/09/28 09:46:49;;;;;;;0.90;0.90;;;21.80;46.60;21.50;96353.00;;;;4993656;28;20707;-55
2023/09/28 09:49:18;;;;;;;0.95;0.95;;;21.80;46.10;21.70;96352.00;;;;4993463;28;20186;-55
2023/09/28 09:51:47;;;;;;;2.05;1.35;;;21.90;45.40;21.80;96356.00;;;;4993416;28;20217;-55
2023/09/28 09:54:16;;;;;;;1.63;1.50;;;;;22.00;96361.00;;;;4993496;28;20190;-55
2023/09/28 09:56:47;;;;;;;1.17;1.13;;;22.20;39.80;22.00;96355.00;;;;4993343;28;20201;-55
2023/09/28 09:59:17;;;;;;;0.70;0.70;;;22.40;39.20;22.20;96358.00;;;;4993818;28;20653;-55
2023/09/28 10:01:48;;;;;;;1.00;1.00;;;22.40;39.30;22.30;96355.00;;;;4993495;28;20771;-55
2023/09/28 10:04:17;;;;;;;2.17;1.58;;;22.50;39.70;22.40;96357.00;;;;4995180;28;20360;-57
2023/09/28 10:06:48;;;;;;;0.77;0.77;;;22.70;39.10;22.80;96358.00;;;;4997906;28;20190;-55
2023/09/28 10:09:18;;;;;;;0.70;0.70;;;22.90;38.50;22.70;96348.00;;;;4997380;28;20182;-56
2023/09/28 10:11:47;;;;;;;0.95;0.90;;;22.90;38.60;22.60;96350.00;;;;4997189;28;20289;-56
2023/09/28 10:14:18;;;;;;;0.70;0.70;;;22.90;38.60;22.80;96346.00;;;;4997454;28;20190;-56
2023/09/28 10:16:48;;;;;;;0.85;0.85;;;23.10;38.60;23.10;96344.00;;;;4997480;28;20576;-56
2023/09/28 10:19:19;;;;;;;0.70;0.70;;;;;22.90;96340.00;;;;4997634;28;20210;-56
2023/09/28 10:21:46;;;;;;;1.15;1.13;;;23.20;38.30;23.20;96332.00;;;;4997333;28;20263;-56
2023/09/28 10:24:17;;;;;;;1.15;1.15;;;;;23.40;96337.00;;;;4997010;28;20213;-56
2023/09/28 10:26:48;;;;;;;1.23;1.13;;;23.60;37.70;23.50;96325.00;;;;4997215;28;20198;-56
2023/09/28 10:29:20;;;;;;;0.98;0.98;;;23.70;42.30;23.80;96326.00;;;;4997497;28;20179;-56
2023/09/28 10:31:47;;;;;;;0.73;0.73;;;23.90;42.70;23.90;96306.00;;;;4997036;28;20218;-55
2023/09/28 10:34:20;;;;;;;1.02;1.02;;;24.10;38.40;24.10;96311.00;;;;4997157;28;20186;-55
2023/09/28 10:37:19;;;;;;;1.00;1.00;;;24.30;37.60;24.30;96305.00;;;;4979511;28;20668;-56
2023/09/28 10:39:52;;;;;;;1.13;1.00;;;24.60;36.70;24.30;96319.00;;;;4996976;28;20187;-56
2023/09/28 10:42:23;;;;;;;1.13;1.13;;;24.50;38.10;24.60;96322.00;;;;4996717;28;20591;-57
2023/09/28 10:44:53;;;;;;;1.13;1.13;;;;;24.70;96320.00;;;;4996762;28;20551;-58
2023/09/28 10:47:21;;;;;;;0.70;0.70;;;;;24.90;96326.00;;;;4996789;28;20186;-55
2023/09/28 10:49:50;;;;;;;0.90;0.90;;;;;24.90;96330.00;;;;4996555;28;20198;-56
2023/09/28 10:52:17;;;;;;;0.57;0.57;;;;;25.00;96320.00;;;;4996597;28;20222;-56
2023/09/28 10:54:46;;;;;;;0.82;0.82;;;25.20;45.80;25.10;96322.00;;;;4997055;28;20189;-55
2023/09/28 10:57:13;;;;;;;1.73;1.63;;;;;25.40;96327.00;;;;4997190;28;20195;-55
2023/09/28 10:59:41;;;;;;;2.17;1.20;;;;;25.50;96331.00;;;;4996825;28;20205;-55
2023/09/28 11:02:11;;;;;;;1.05;1.00;;;;;25.50;96343.00;;;;4996514;28;20226;-56
2023/09/28 11:04:39;;;;;;;1.25;1.23;;;;;25.40;96338.00;;;;4996242;28;20662;-56
2023/09/28 11:07:07;;;;;;;0.80;0.80;;;25.70;37.40;25.50;96340.00;;;;4979044;28;20292;-56
2023/09/28 11:09:37;;;;;;;1.40;1.30;;;25.70;38.20;25.50;96340.00;;;;4996236;28;20289;-55
2023/09/28 11:12:09;;;;;;;0.68;0.68;;;25.70;35.80;25.50;96339.00;;;;4996253;28;20249;-56
2023/09/28 11:14:41;;;;;;;0.88;0.88;;;25.70;36.50;25.40;96333.00;;;;4996301;28;20186;-56
2023/09/28 11:17:10;;;;;;;0.70;0.70;;;25.70;36.20;25.60;96335.00;;;;4996317;28;20726;-56
2023/09/28 11:19:37;;;;;;;0.65;0.65;;;25.80;38.00;25.90;96319.00;;;;4995958;28;20231;-56
2023/09/28 11:22:05;;;;;;;0.80;0.80;;;26.10;37.00;26.00;96330.00;;;;4996038;28;20344;-55
2023/09/28 11:24:33;;;;;;;0.77;0.77;;;;;25.90;96331.00;;;;4996046;28;20198;-57
2023/09/28 11:27:01;;;;;;;1.08;1.08;;;26.10;23.90;26.10;96333.00;;;;4995849;28;20194;-57
2023/09/28 11:29:28;;;;;;;0.70;0.70;;;26.20;23.40;26.30;96328.00;;;;4996496;28;20217;-56
2023/09/28 11:31:56;;;;;;;0.73;0.73;;;26.40;23.60;26.40;96338.00;;;;4996020;28;20241;-57
2023/09/28 11:34:32;;;;;;;1.45;1.35;;;26.60;22.70;26.50;96340.00;;;;4996206;28;20201;-56
2023/09/28 11:37:00;;;;;;;0.90;0.90;;;26.70;23.00;26.80;96337.00;;;;4996448;28;20569;-56
2023/09/28 11:39:28;;;;;;;0.80;0.80;;;26.90;23.10;27.10;96334.00;;;;4995516;28;20198;-56
2023/09/28 11:41:59;;;;;;;1.17;0.80;;;27.10;23.90;27.40;96336.00;;;;4995860;28;20306;-55
2023/09/28 11:44:27;;;;;;;3.03;1.00;;;27.40;24.50;27.60;96333.00;;;;4995840;28;20194;-55
2023/09/28 11:46:55;;;;;;;0.70;0.70;;;27.70;31.40;27.80;96329.00;;;;4996755;28;20190;-56
2023/09/28 11:49:23;;;;;;;0.80;0.80;;;27.90;40.40;28.00;96324.00;;;;4996013;28;20190;-56
2023/09/28 11:51:53;;;;;;;1.00;1.00;;;28.00;38.30;28.10;96313.00;;;;4995523;28;20214;-56
2023/09/28 11:54:22;;;;;;;0.50;0.50;;;28.20;33.10;28.30;96300.00;;;;4977898;28;20198;-56
2023/09/28 11:56:50;;;;;;;0.70;0.70;;;;;28.60;96268.00;;;;4995290;28;20226;-56
2023/09/28 11:59:17;;;;;;;0.80;0.80;;;28.50;21.10;28.70;96284.00;;;;4995228;28;20198;-56
2023/09/28 12:01:45;;;;;;;1.50;1.40;;;;;28.90;96298.00;;;;4995315;28;20225;-56
2023/09/28 12:04:13;;;;;;;0.90;0.90;;;28.90;20.10;29.10;96292.00;;;;4977785;28;20200;-56
2023/09/28 12:06:43;;;;;;;1.27;1.17;;;29.10;20.40;29.10;96291.00;;;;4995111;28;20507;-56
2023/09/28 12:09:13;;;;;;;0.80;0.80;;;29.20;20.30;29.20;96295.00;;;;4995114;28;20248;-56